KMSO/MSO METAR and TAF weather

Enter ICAO airport designator
Station Type Date Time Source
KMSO METAR 2019/10/19 06:53 UTC NOAA

KMSO 190653Z AUTO 11006KT 10SM OVC070 05/M02 A2986 RMK AO2 SLP119 T00501017 401110028


Station Type Date Time Source
KMSO Decoded METAR 2019/10/19 06:53 UTC NOAA

MISSOULA INTERNATIONAL AIRPORT , MT, United States (KMSO) 46-55N 114-06W 975M
Oct 19, 2019 - 02:53 AM EDT / 2019.10.19 0653 UTC
Wind: from the ESE (110 degrees) at 7 MPH (6 KT):0
Visibility: 10 mile(s):0
Sky conditions: overcast
Temperature: 41.0 F (5.0 C)
Dew Point: 28.9 F (-1.7 C)
Relative Humidity: 61%
Pressure (altimeter): 29.86 in. Hg (1011 hPa)
ob: KMSO 190653Z AUTO 11006KT 10SM OVC070 05/M02 A2986 RMK AO2 SLP119 T00501017 401110028
cycle: 7

Station Type Date Time Source
KMSO TAF 2019/10/19 06:33 UTC NOAA

TAF KMSO 190531Z 1906/2006 17004KT P6SM OVC070
FM191000 13004KT P6SM VCSH OVC040
FM191800 13004KT 5SM -SHRASN OVC030

Example: see airport list